Time;durP1;ratioP1;P1;durP2;ratioP2;P2;SDS_P1;SDS_P2;PMS_P1;PMS_P2;Temp;Humidity;BMP_temperature;BMP_pressure;BME280_temperature;BME280_humidity;BME280_pressure;Samples;Min_cycle;Max_cycle;Signal;HPM_P1;HPM_P2
2022/04/21 00:00:04;;;;;;;7.72;4.22;;;9.50;99.90;;;;;;5084433;28;20051;-64
2022/04/21 00:02:29;;;;;;;9.18;4.30;;;9.40;99.90;;;;;;5084327;28;20054;-64
2022/04/21 00:04:55;;;;;;;8.70;4.35;;;9.40;99.90;;;;;;5085804;28;20043;-64
2022/04/21 00:07:22;;;;;;;6.97;3.95;;;9.50;99.90;;;;;;5076878;28;20044;-64
2022/04/21 00:09:47;;;;;;;7.45;4.53;;;9.40;99.90;;;;;;5082128;28;20059;-64
2022/04/21 00:12:13;;;;;;;7.47;3.92;;;9.40;99.90;;;;;;5076772;28;20036;-66
2022/04/21 00:14:38;;;;;;;9.68;4.13;;;9.40;99.90;;;;;;5082518;28;20102;-65
2022/04/21 00:17:04;;;;;;;8.63;4.43;;;9.40;99.90;;;;;;5079170;28;20073;-64
2022/04/21 00:19:29;;;;;;;7.68;4.32;;;9.40;99.90;;;;;;5083196;28;20055;-64
2022/04/21 00:24:39;;;;;;;8.30;4.60;;;9.30;99.90;;;;;;5080501;28;20075;-64
2022/04/21 00:27:05;;;;;;;7.65;4.32;;;9.30;99.90;;;;;;5077157;28;20063;-65
2022/04/21 00:29:30;;;;;;;9.02;4.35;;;9.30;99.90;;;;;;5077936;28;20063;-64
2022/04/21 00:31:56;;;;;;;7.63;4.78;;;9.20;99.90;;;;;;5077686;28;20491;-64
2022/04/21 00:34:22;;;;;;;8.70;4.30;;;9.10;99.90;;;;;;5076964;28;20762;-64
2022/04/21 00:36:47;;;;;;;9.48;4.80;;;9.10;99.90;;;;;;5079228;28;20040;-64
2022/04/21 00:39:13;;;;;;;8.15;4.22;;;9.10;99.90;;;;;;5081968;28;20040;-65
2022/04/21 00:41:41;;;;;;;10.15;4.78;;;9.10;99.90;;;;;;5083413;28;20040;-63
2022/04/21 00:44:06;;;;;;;9.93;4.60;;;9.00;99.90;;;;;;5085074;28;20048;-64
2022/04/21 00:46:37;;;;;;;6.40;4.22;;;9.10;99.90;;;;;;5083692;28;20042;-66
2022/04/21 00:49:04;;;;;;;8.35;4.82;;;9.10;99.90;;;;;;5077155;28;20044;-64
2022/04/21 00:51:31;;;;;;;8.77;4.60;;;9.00;99.90;;;;;;5078826;28;20078;-64
2022/04/21 00:53:57;;;;;;;7.28;4.68;;;9.10;99.90;;;;;;5089299;28;20525;-65
2022/04/21 00:56:23;;;;;;;7.13;4.38;;;9.10;99.90;;;;;;5085956;28;20488;-64
2022/04/21 00:58:49;;;;;;;7.38;4.65;;;9.00;99.90;;;;;;5089023;28;20051;-65
2022/04/21 01:03:59;;;;;;;10.38;5.65;;;8.90;99.90;;;;;;5085891;28;20194;-64
2022/04/21 01:06:25;;;;;;;7.78;4.22;;;8.90;99.90;;;;;;5088716;28;20179;-65
2022/04/21 01:08:50;;;;;;;8.27;4.57;;;8.90;99.90;;;;;;5088598;28;20036;-64
2022/04/21 01:11:17;;;;;;;9.07;4.90;;;8.80;99.90;;;;;;5088023;28;20801;-63
2022/04/21 01:13:43;;;;;;;6.88;4.45;;;8.80;99.90;;;;;;5088512;28;20517;-64
2022/04/21 01:16:08;;;;;;;8.90;4.63;;;8.80;99.90;;;;;;5087672;28;20101;-64
2022/04/21 01:18:34;;;;;;;7.68;4.75;;;8.70;99.90;;;;;;5087278;28;20163;-64
2022/04/21 01:21:00;;;;;;;9.13;4.78;;;8.70;99.90;;;;;;5086647;28;20365;-66
2022/04/21 01:23:26;;;;;;;10.20;4.93;;;8.60;99.90;;;;;;5081615;28;20044;-65
2022/04/21 01:25:52;;;;;;;10.25;4.80;;;8.60;99.90;;;;;;5080660;28;20055;-65
2022/04/21 01:28:18;;;;;;;7.45;4.82;;;8.50;99.90;;;;;;5084774;28;20411;-64
2022/04/21 01:30:44;;;;;;;7.95;4.68;;;8.50;99.90;;;;;;5086769;28;20372;-65
2022/04/21 01:33:09;;;;;;;8.63;4.75;;;8.50;99.90;;;;;;5084257;28;20044;-66
2022/04/21 01:35:36;;;;;;;8.40;5.32;;;8.40;99.90;;;;;;5083346;28;20048;-65
2022/04/21 01:43:30;;;;;;;8.35;5.20;;;8.40;99.90;;;;;;5086561;28;20159;-64
2022/04/21 01:45:56;;;;;;;7.72;4.88;;;8.40;99.90;;;;;;5084307;28;20032;-64
2022/04/21 01:48:21;;;;;;;9.90;4.90;;;8.40;99.90;;;;;;5085484;28;20405;-64
2022/04/21 01:50:47;;;;;;;9.20;4.70;;;8.30;99.90;;;;;;5084193;28;20507;-64
2022/04/21 01:53:12;;;;;;;7.68;5.00;;;8.40;99.90;;;;;;5084329;28;20109;-66
2022/04/21 01:55:38;;;;;;;8.43;4.55;;;8.30;99.90;;;;;;5084363;28;20427;-64
2022/04/21 01:58:04;;;;;;;8.25;5.40;;;8.30;99.90;;;;;;5086462;28;20040;-64
2022/04/21 02:00:29;;;;;;;7.03;4.53;;;8.30;99.90;;;;;;5082510;28;20465;-65
2022/04/21 02:02:55;;;;;;;8.85;4.78;;;8.20;99.90;;;;;;5084604;28;20435;-64
2022/04/21 02:05:21;;;;;;;7.53;5.00;;;8.20;99.90;;;;;;5084445;28;20032;-64
2022/04/21 02:07:47;;;;;;;8.68;5.32;;;8.10;99.90;;;;;;5080704;28;20059;-64
2022/04/21 02:10:14;;;;;;;8.90;5.22;;;8.10;99.90;;;;;;5086782;28;20047;-64
2022/04/21 02:12:41;;;;;;;9.20;4.97;;;8.10;99.90;;;;;;5085250;28;20044;-64
2022/04/21 02:15:07;;;;;;;8.43;5.18;;;8.00;99.90;;;;;;5088632;28;20043;-64
2022/04/21 02:17:33;;;;;;;9.95;5.38;;;8.00;99.90;;;;;;5084970;28;20122;-65
2022/04/21 02:19:59;;;;;;;8.82;5.40;;;8.00;99.90;;;;;;5086938;28;20060;-64
2022/04/21 02:22:26;;;;;;;8.85;5.90;;;7.90;99.90;;;;;;5083516;28;20105;-64
2022/04/21 02:24:52;;;;;;;8.65;5.80;;;7.90;99.90;;;;;;5087556;28;20039;-64
2022/04/21 02:27:18;;;;;;;10.52;6.05;;;7.90;99.90;;;;;;5082803;28;20471;-63
2022/04/21 02:29:43;;;;;;;9.63;5.35;;;7.80;99.90;;;;;;5086211;28;20051;-64
2022/04/21 02:32:09;;;;;;;8.23;5.25;;;7.80;99.90;;;;;;5080343;28;20058;-66
2022/04/21 02:34:34;;;;;;;8.57;5.57;;;7.80;99.90;;;;;;5082287;28;20449;-64
2022/04/21 02:37:00;;;;;;;10.55;6.38;;;7.80;99.90;;;;;;5080634;28;20044;-65
2022/04/21 02:39:25;;;;;;;11.52;5.72;;;7.70;99.90;;;;;;5085158;28;20414;-64
2022/04/21 02:41:51;;;;;;;9.68;5.70;;;7.70;99.90;;;;;;5079300;28;20330;-64
2022/04/21 02:44:17;;;;;;;8.07;5.47;;;7.60;99.90;;;;;;5081803;28;20930;-64
2022/04/21 02:46:43;;;;;;;8.43;5.97;;;7.60;99.90;;;;;;5084191;28;20054;-64
2022/04/21 02:49:09;;;;;;;10.18;6.63;;;7.60;99.90;;;;;;5080864;28;20052;-64
2022/04/21 02:51:35;;;;;;;10.77;6.68;;;7.50;99.90;;;;;;5082329;28;20110;-64
2022/04/21 02:59:30;;;;;;;10.00;6.25;;;7.40;99.90;;;;;;5082605;28;20052;-64
2022/04/21 03:01:55;;;;;;;11.63;6.57;;;7.40;99.90;;;;;;5080025;28;20074;-64
2022/04/21 03:04:21;;;;;;;10.85;6.35;;;7.40;99.90;;;;;;5082544;28;20047;-64
2022/04/21 03:06:47;;;;;;;10.68;6.40;;;7.30;99.90;;;;;;5080890;28;20400;-64
2022/04/21 03:09:13;;;;;;;10.23;6.43;;;7.40;99.90;;;;;;5083531;28;20123;-64
2022/04/21 03:11:38;;;;;;;10.65;6.20;;;7.40;99.90;;;;;;5079874;28;20050;-65
2022/04/21 03:14:04;;;;;;;10.70;6.68;;;7.40;99.90;;;;;;5081521;28;20040;-65
2022/04/21 03:16:29;;;;;;;10.32;6.78;;;7.40;99.90;;;;;;5078885;28;20048;-64
2022/04/21 03:18:55;;;;;;;11.43;6.47;;;7.40;99.90;;;;;;5083045;28;20036;-64
2022/04/21 03:24:20;;;;;;;10.80;7.20;;;7.40;99.90;;;;;;5083937;28;20051;-64
2022/04/21 03:26:50;;;;;;;10.35;7.10;;;7.30;99.90;;;;;;5086286;28;20094;-64
2022/04/21 03:29:16;;;;;;;12.02;6.75;;;7.30;99.90;;;;;;5084487;28;20048;-64
2022/04/21 03:31:43;;;;;;;11.70;6.80;;;7.30;99.90;;;;;;5077288;28;20043;-64
2022/04/21 03:34:13;;;;;;;10.75;6.78;;;7.30;99.90;;;;;;5086413;28;20048;-64
2022/04/21 03:36:47;;;;;;;10.57;6.18;;;7.20;99.90;;;;;;5086668;28;20054;-64
2022/04/21 03:39:16;;;;;;;9.60;6.37;;;7.20;99.90;;;;;;5086998;28;20068;-65
2022/04/21 03:41:42;;;;;;;11.52;7.13;;;7.20;99.90;;;;;;5087452;28;20044;-65
2022/04/21 03:44:09;;;;;;;12.98;6.95;;;7.10;99.90;;;;;;5079052;28;20048;-64
2022/04/21 03:46:35;;;;;;;12.32;7.28;;;7.10;99.90;;;;;;5085752;28;20106;-64
2022/04/21 03:49:00;;;;;;;11.80;7.32;;;7.10;99.90;;;;;;5085775;28;20041;-64
2022/04/21 03:51:27;;;;;;;11.65;6.88;;;7.10;99.90;;;;;;5084860;28;20112;-64
2022/04/21 03:53:54;;;;;;;10.95;6.95;;;7.10;99.90;;;;;;5088873;28;20036;-63
2022/04/21 03:56:19;;;;;;;11.02;7.18;;;7.10;99.90;;;;;;5087006;28;20139;-64
2022/04/21 03:58:45;;;;;;;11.50;7.15;;;7.10;99.90;;;;;;5086695;28;20481;-63
2022/04/21 04:01:10;;;;;;;9.60;6.90;;;7.10;99.90;;;;;;5085747;28;20123;-65
2022/04/21 04:03:36;;;;;;;10.02;6.63;;;7.10;99.90;;;;;;5085592;28;20158;-65
2022/04/21 04:06:01;;;;;;;11.90;7.63;;;7.10;99.90;;;;;;5082889;28;20067;-67
2022/04/21 04:11:11;;;;;;;11.05;7.05;;;7.00;99.90;;;;;;5086376;28;20838;-65
2022/04/21 04:13:36;;;;;;;10.45;7.43;;;7.00;99.90;;;;;;5085561;28;20047;-65
2022/04/21 04:16:02;;;;;;;12.75;7.63;;;7.00;99.90;;;;;;5083124;28;20047;-66
2022/04/21 04:18:29;;;;;;;11.77;7.53;;;6.90;99.90;;;;;;5081325;28;20067;-65
2022/04/21 04:20:55;;;;;;;12.27;7.57;;;6.90;99.90;;;;;;5086207;28;20089;-64
2022/04/21 04:23:22;;;;;;;11.65;7.47;;;6.90;99.90;;;;;;5086189;28;20049;-63
2022/04/21 04:25:48;;;;;;;12.13;7.95;;;6.90;99.90;;;;;;5083415;28;20089;-65
2022/04/21 04:28:14;;;;;;;11.75;7.20;;;6.90;99.90;;;;;;5086732;28;20044;-65
2022/04/21 04:30:40;;;;;;;12.85;7.88;;;6.90;99.90;;;;;;5089460;28;20151;-64
2022/04/21 04:33:07;;;;;;;12.35;7.32;;;7.00;99.90;;;;;;5087170;28;20033;-64
2022/04/21 04:35:32;;;;;;;10.77;7.57;;;6.90;99.90;;;;;;5086164;28;20072;-64
2022/04/21 04:37:58;;;;;;;14.98;7.85;;;6.90;99.90;;;;;;5088918;28;20129;-65
2022/04/21 04:40:25;;;;;;;11.43;7.57;;;6.90;99.90;;;;;;5084665;28;20051;-65
2022/04/21 04:42:53;;;;;;;12.40;8.07;;;6.90;99.90;;;;;;5087724;28;20052;-64
2022/04/21 04:48:04;;;;;;;12.35;7.50;;;6.90;99.90;;;;;;5090289;28;20043;-63
2022/04/21 04:50:31;;;;;;;13.50;7.97;;;6.90;99.90;;;;;;5084652;28;20507;-64
2022/04/21 04:53:00;;;;;;;11.57;7.30;;;6.90;99.90;;;;;;5081154;28;20120;-64
2022/04/21 04:55:26;;;;;;;12.25;7.70;;;6.90;99.90;;;;;;5089346;28;20094;-64
2022/04/21 04:57:52;;;;;;;13.10;7.97;;;7.00;99.90;;;;;;5087860;28;20045;-64
2022/04/21 05:00:18;;;;;;;13.38;8.02;;;7.30;99.90;;;;;;5086749;28;20081;-64
2022/04/21 05:02:44;;;;;;;13.52;7.82;;;7.90;99.90;;;;;;5090165;28;20044;-64
2022/04/21 05:05:11;;;;;;;17.13;7.85;;;8.40;99.90;;;;;;5090810;28;20040;-66
2022/04/21 05:07:39;;;;;;;11.65;8.23;;;8.80;99.90;;;;;;5089733;28;20035;-64
2022/04/21 05:10:06;;;;;;;10.45;7.45;;;9.00;99.90;;;;;;5088368;28;20107;-64
2022/04/21 05:12:32;;;;;;;12.13;7.90;;;9.00;99.90;;;;;;5088761;28;20039;-64
2022/04/21 05:14:58;;;;;;;11.77;7.30;;;8.80;99.90;;;;;;5088246;28;20166;-64
2022/04/21 05:17:24;;;;;;;10.73;7.32;;;8.70;99.90;;;;;;5088170;28;20040;-64
2022/04/21 05:19:52;;;;;;;11.82;7.63;;;8.70;99.90;;;;;;5090940;28;20047;-64
2022/04/21 05:22:18;;;;;;;13.20;7.45;;;8.60;99.90;;;;;;5085182;28;20411;-64
2022/04/21 05:24:51;;;;;;;11.20;7.00;;;8.60;99.90;;;;;;5084746;28;20494;-63
2022/04/21 05:27:17;;;;;;;12.15;6.90;;;8.60;99.90;;;;;;5084995;28;20119;-64
2022/04/21 05:32:28;;;;;;;11.05;7.00;;;8.60;99.90;;;;;;5079721;28;20048;-64
2022/04/21 05:34:54;;;;;;;12.52;7.50;;;8.60;99.90;;;;;;5078039;28;20215;-64
2022/04/21 05:37:20;;;;;;;11.50;7.50;;;8.50;99.90;;;;;;5080277;28;20127;-64
2022/04/21 05:39:46;;;;;;;12.27;7.05;;;8.50;99.90;;;;;;5088691;28;20089;-65
2022/04/21 05:42:20;;;;;;;12.60;7.88;;;8.50;99.90;;;;;;5086491;28;20054;-63
2022/04/21 05:44:46;;;;;;;10.77;7.65;;;8.50;99.90;;;;;;5080847;28;20154;-66
2022/04/21 05:47:12;;;;;;;11.88;7.70;;;8.50;99.90;;;;;;5085984;28;20115;-63
2022/04/21 05:49:38;;;;;;;13.15;7.70;;;8.50;99.90;;;;;;5086382;28;20036;-64
2022/04/21 05:52:07;;;;;;;11.43;7.88;;;8.50;99.90;;;;;;5077549;28;20086;-66
2022/04/21 05:54:33;;;;;;;11.55;8.45;;;8.50;99.90;;;;;;5083860;28;20846;-64
2022/04/21 05:56:59;;;;;;;13.85;8.68;;;8.60;99.90;;;;;;5089082;28;20090;-64
2022/04/21 05:59:24;;;;;;;13.68;8.15;;;8.60;99.90;;;;;;5089691;28;20043;-62
2022/04/21 06:01:50;;;;;;;10.32;7.40;;;8.70;99.90;;;;;;5086426;28;20371;-63
2022/04/21 06:04:16;;;;;;;12.45;8.20;;;8.70;99.90;;;;;;5088520;28;20044;-64
2022/04/21 06:06:42;;;;;;;12.48;7.88;;;8.80;99.90;;;;;;5087520;28;20257;-64
2022/04/21 06:09:07;;;;;;;13.57;8.77;;;8.90;99.90;;;;;;5088893;28;20075;-64
2022/04/21 06:11:34;;;;;;;14.10;7.85;;;9.00;99.90;;;;;;5088925;28;20068;-63
2022/04/21 06:14:00;;;;;;;10.70;7.72;;;9.10;99.90;;;;;;5088458;28;20052;-64
2022/04/21 06:16:25;;;;;;;12.75;7.78;;;9.10;99.90;;;;;;5088566;28;20040;-64
2022/04/21 06:18:51;;;;;;;11.25;7.55;;;9.20;99.90;;;;;;5086970;28;20070;-63
2022/04/21 06:21:17;;;;;;;10.68;6.63;;;9.20;99.90;;;;;;5086078;28;20348;-64
2022/04/21 06:23:42;;;;;;;10.13;7.13;;;9.30;99.90;;;;;;5070125;28;20044;-65
2022/04/21 06:26:08;;;;;;;11.05;7.13;;;9.30;99.90;;;;;;5086540;28;20044;-65
2022/04/21 06:28:34;;;;;;;12.65;7.20;;;9.40;99.90;;;;;;5080895;28;20050;-66
2022/04/21 06:30:59;;;;;;;13.73;7.93;;;9.40;99.90;;;;;;5089096;28;20392;-65
2022/04/21 06:33:25;;;;;;;10.68;7.20;;;9.50;99.90;;;;;;5085032;28;20554;-64
2022/04/21 06:35:50;;;;;;;11.68;7.10;;;9.60;99.90;;;;;;5088764;28;20044;-66
2022/04/21 06:38:16;;;;;;;13.82;7.20;;;9.60;99.90;;;;;;5088894;28;20131;-65
2022/04/21 06:40:42;;;;;;;11.27;6.43;;;9.70;99.90;;;;;;5088037;28;20131;-65
2022/04/21 06:48:36;;;;;;;8.32;5.10;;;10.00;99.90;;;;;;5084894;28;20095;-65
2022/04/21 06:51:03;;;;;;;7.95;5.40;;;10.10;99.90;;;;;;5086285;28;20048;-66
2022/04/21 06:53:30;;;;;;;7.70;5.40;;;10.10;99.90;;;;;;5087422;28;20115;-65
2022/04/21 06:55:55;;;;;;;8.85;5.45;;;10.20;99.90;;;;;;5087028;28;20048;-66
2022/04/21 06:58:21;;;;;;;9.55;5.65;;;10.30;99.90;;;;;;5088424;28;20089;-64
2022/04/21 07:00:47;;;;;;;8.75;5.22;;;10.40;99.90;;;;;;5088296;28;20044;-65
2022/04/21 07:03:13;;;;;;;7.00;4.93;;;10.50;99.90;;;;;;5086303;28;20051;-66
2022/04/21 07:05:38;;;;;;;7.97;4.88;;;10.60;99.90;;;;;;5086825;28;20396;-66
2022/04/21 07:08:04;;;;;;;7.72;4.60;;;10.70;99.90;;;;;;5084506;28;20047;-65
2022/04/21 07:10:30;;;;;;;7.43;4.50;;;10.70;99.90;;;;;;5087861;28;20040;-65
2022/04/21 07:12:55;;;;;;;7.00;4.70;;;10.70;99.90;;;;;;5089701;28;20040;-65
2022/04/21 07:15:21;;;;;;;8.48;4.97;;;10.90;99.90;;;;;;5084650;28;20166;-65
2022/04/21 07:17:47;;;;;;;7.93;4.72;;;11.00;99.90;;;;;;5086989;28;20093;-65
2022/04/21 07:20:13;;;;;;;6.50;4.18;;;11.10;99.90;;;;;;5086072;28;20145;-66
2022/04/21 07:22:39;;;;;;;8.90;4.65;;;11.10;99.90;;;;;;5087384;28;20070;-65
2022/04/21 07:25:08;;;;;;;8.07;4.50;;;11.20;99.90;;;;;;5087604;28;20070;-65
2022/04/21 07:27:34;;;;;;;7.03;4.60;;;11.20;99.90;;;;;;5086715;28;20040;-62
2022/04/21 07:30:01;;;;;;;7.25;4.53;;;11.30;99.90;;;;;;5087915;28;20433;-63
2022/04/21 07:32:26;;;;;;;8.73;4.65;;;11.40;99.90;;;;;;5086420;28;20056;-63
2022/04/21 07:34:52;;;;;;;6.22;4.20;;;11.40;99.50;;;;;;5088566;28;20150;-64
2022/04/21 07:37:18;;;;;;;6.82;4.40;;;11.50;99.80;;;;;;5083360;28;20101;-65
2022/04/21 07:39:43;;;;;;;6.55;3.90;;;11.60;99.60;;;;;;5085733;28;20434;-64
2022/04/21 07:42:10;;;;;;;6.07;4.03;;;11.70;99.40;;;;;;5086507;28;20149;-65
2022/04/21 07:44:37;;;;;;;5.63;3.65;;;11.80;98.70;;;;;;5087992;28;20048;-64
2022/04/21 07:47:05;;;;;;;6.70;3.70;;;12.00;98.20;;;;;;5084437;28;20059;-65
2022/04/21 07:49:46;;;;;;;6.43;3.60;;;12.00;97.40;;;;;;5085489;28;20412;-65
2022/04/21 07:55:21;;;;;;;7.50;4.00;;;12.20;94.90;;;;;;5087792;28;20056;-65
2022/04/21 07:57:47;;;;;;;5.80;3.35;;;12.30;94.50;;;;;;5085685;28;20520;-64
2022/04/21 08:00:15;;;;;;;4.72;2.80;;;12.40;95.10;;;;;;5087111;28;20048;-64
2022/04/21 08:02:42;;;;;;;5.50;2.97;;;12.40;91.80;;;;;;5088880;28;20098;-63
2022/04/21 08:05:09;;;;;;;6.25;2.92;;;12.40;92.10;;;;;;5087981;28;20112;-66
2022/04/21 08:07:36;;;;;;;5.78;3.05;;;12.50;92.30;;;;;;5091852;28;20104;-64
2022/04/21 08:10:03;;;;;;;5.40;3.00;;;12.60;92.60;;;;;;5090352;28;20570;-68
2022/04/21 08:12:40;;;;;;;4.82;2.90;;;12.70;92.20;;;;;;5081349;28;20047;-67
2022/04/21 08:15:10;;;;;;;4.18;2.33;;;12.80;92.20;;;;;;5090926;28;20090;-66
2022/04/21 08:17:37;;;;;;;6.82;2.47;;;12.90;91.80;;;;;;5089788;28;20044;-66
2022/04/21 08:20:08;;;;;;;4.65;2.50;;;13.00;87.30;;;;;;5089861;28;20488;-68
2022/04/21 08:22:34;;;;;;;6.03;2.60;;;13.10;87.20;;;;;;5088536;28;20150;-65
2022/04/21 08:33:14;;;;;;;5.00;2.55;;;13.40;82.40;;;;;;5087632;28;20056;-66
2022/04/21 08:35:39;;;;;;;8.70;3.20;;;13.50;79.20;;;;;;5090472;28;20474;-65
2022/04/21 08:38:07;;;;;;;5.80;2.63;;;13.50;78.60;;;;;;5090113;28;20051;-66
2022/04/21 08:40:35;;;;;;;5.03;2.40;;;13.60;79.40;;;;;;5090040;28;20530;-67
2022/04/21 08:43:07;;;;;;;5.15;2.42;;;13.70;82.10;;;;;;5091175;28;20051;-66
2022/04/21 08:45:33;;;;;;;4.35;2.50;;;13.80;79.10;;;;;;5092051;28;20198;-66
2022/04/21 08:48:01;;;;;;;5.50;2.60;;;13.80;75.10;;;;;;5086505;28;20186;-67
2022/04/21 08:50:28;;;;;;;6.40;2.80;;;13.90;77.00;;;;;;5077205;28;20043;-66
2022/04/21 08:52:54;;;;;;;6.80;2.80;;;13.90;79.50;;;;;;5088410;28;20062;-67
2022/04/21 08:55:19;;;;;;;5.40;2.72;;;14.00;79.10;;;;;;5089355;28;20404;-66
2022/04/21 08:57:45;;;;;;;5.38;3.17;;;14.10;77.50;;;;;;5080615;28;20063;-66
2022/04/21 09:00:11;;;;;;;4.80;2.80;;;14.10;78.20;;;;;;5084792;28;20044;-66
2022/04/21 09:02:44;;;;;;;5.00;3.03;;;14.20;77.00;;;;;;5089817;28;20036;-65
2022/04/21 09:05:11;;;;;;;5.32;2.83;;;14.20;76.40;;;;;;5089738;28;20111;-68
2022/04/21 09:07:47;;;;;;;4.85;2.92;;;14.20;75.70;;;;;;5085153;28;20028;-65
2022/04/21 09:10:14;;;;;;;6.13;2.83;;;14.30;75.00;;;;;;5080697;28;20114;-64
2022/04/21 09:12:47;;;;;;;5.85;2.92;;;14.30;78.20;;;;;;5087231;28;20428;-65
2022/04/21 09:15:15;;;;;;;5.78;2.95;;;14.40;76.70;;;;;;5089572;28;20052;-64
2022/04/21 09:17:57;;;;;;;6.53;3.28;;;14.50;77.60;;;;;;5086256;28;20116;-65
2022/04/21 09:20:26;;;;;;;6.55;3.05;;;14.60;77.30;;;;;;5088378;28;20105;-66
2022/04/21 09:22:57;;;;;;;4.55;2.63;;;14.70;76.40;;;;;;5087915;28;20422;-65
2022/04/21 09:25:23;;;;;;;5.97;3.15;;;14.70;75.10;;;;;;5073629;28;20051;-66
2022/04/21 09:27:49;;;;;;;5.05;2.58;;;14.90;77.60;;;;;;5087155;28;20040;-65
2022/04/21 09:30:15;;;;;;;5.85;2.70;;;15.00;76.60;;;;;;5088486;28;20047;-65
2022/04/21 09:32:53;;;;;;;6.35;2.67;;;15.10;76.90;;;;;;5088120;28;20048;-65
2022/04/21 09:35:19;;;;;;;6.07;2.85;;;15.20;76.40;;;;;;5089309;28;20087;-65
2022/04/21 09:37:54;;;;;;;5.22;2.65;;;15.30;75.90;;;;;;5085298;28;20064;-66
2022/04/21 09:40:22;;;;;;;5.70;2.83;;;15.30;75.60;;;;;;5089530;28;20044;-65
2022/04/21 09:43:03;;;;;;;4.68;2.50;;;15.40;74.00;;;;;;5089768;28;20048;-65
2022/04/21 09:48:17;;;;;;;5.25;2.47;;;15.60;71.50;;;;;;5088004;28;20090;-66
2022/04/21 09:50:49;;;;;;;5.85;2.70;;;15.60;68.80;;;;;;5087859;28;20051;-65
2022/04/21 09:53:16;;;;;;;5.10;2.53;;;15.60;67.10;;;;;;5089175;28;20036;-65
2022/04/21 09:55:44;;;;;;;5.35;2.58;;;15.60;64.30;;;;;;5090484;28;20151;-65
2022/04/21 09:58:10;;;;;;;5.45;2.45;;;15.60;66.90;;;;;;5086991;28;20549;-65
2022/04/21 10:00:38;;;;;;;5.45;2.28;;;15.70;67.00;;;;;;5083061;28;20115;-64
2022/04/21 10:03:05;;;;;;;4.20;2.42;;;15.80;67.60;;;;;;5089492;28;20040;-64
2022/04/21 10:05:35;;;;;;;5.82;2.63;;;15.90;68.60;;;;;;5077673;28;20049;-65
2022/04/21 10:08:02;;;;;;;3.80;1.88;;;15.90;67.00;;;;;;5083739;28;20047;-65
2022/04/21 10:10:30;;;;;;;3.80;2.28;;;16.00;67.00;;;;;;5089339;28;20126;-65
2022/04/21 10:12:56;;;;;;;5.32;2.22;;;16.00;66.70;;;;;;5088847;28;20110;-64
2022/04/21 10:15:23;;;;;;;5.57;2.70;;;16.10;65.40;;;;;;5089007;28;20054;-65
2022/04/21 10:17:49;;;;;;;5.50;2.83;;;16.20;65.70;;;;;;5087302;28;20357;-64
2022/04/21 10:20:15;;;;;;;4.82;2.30;;;16.20;63.50;;;;;;5085287;28;20044;-65
2022/04/21 10:22:41;;;;;;;7.63;2.40;;;16.10;63.60;;;;;;5086551;28;20114;-65
2022/04/21 10:25:07;;;;;;;4.30;2.10;;;16.20;62.70;;;;;;5086521;28;20529;-65
2022/04/21 10:27:36;;;;;;;4.30;1.83;;;16.20;60.80;;;;;;5089077;28;20425;-63
2022/04/21 10:30:01;;;;;;;4.00;2.00;;;16.20;60.10;;;;;;5087764;28;20048;-64
2022/04/21 10:32:52;;;;;;;5.00;1.92;;;16.30;61.20;;;;;;5086979;28;20118;-65
2022/04/21 10:35:41;;;;;;;4.10;2.05;;;16.40;60.80;;;;;;5088460;28;20044;-64
2022/04/21 10:38:12;;;;;;;6.63;2.05;;;16.40;59.90;;;;;;5088137;28;20080;-63
2022/04/21 10:41:07;;;;;;;3.55;1.90;;;16.40;57.80;;;;;;5087658;28;20142;-64
2022/04/21 10:43:50;;;;;;;4.10;1.90;;;16.40;59.00;;;;;;5086593;28;20500;-65
2022/04/21 10:46:32;;;;;;;5.68;2.30;;;16.40;58.00;;;;;;5085588;28;20043;-64
2022/04/21 10:48:59;;;;;;;4.43;2.38;;;16.50;59.70;;;;;;5088158;28;20067;-64
2022/04/21 10:57:12;;;;;;;4.05;2.30;;;16.50;59.30;;;;;;5088762;28;20036;-63
2022/04/21 10:57:33;;;;;;;6.07;2.40;;;16.60;61.30;;;;;;5041145;28;20123;-64
2022/04/21 11:00:03;;;;;;;5.53;2.15;;;16.70;60.20;;;;;;5048521;28;20146;-63
2022/04/21 11:02:38;;;;;;;4.72;1.95;;;16.70;59.00;;;;;;5044813;28;20489;-63
2022/04/21 11:05:22;;;;;;;3.97;1.98;;;16.80;57.60;;;;;;5047204;28;20052;-63
2022/04/21 11:07:52;;;;;;;4.53;2.17;;;16.80;58.60;;;;;;5026073;28;20049;-64
2022/04/21 11:10:38;;;;;;;6.53;2.20;;;17.00;59.30;;;;;;5047277;28;20790;-63
2022/04/21 11:13:12;;;;;;;4.55;2.00;;;17.00;58.50;;;;;;5046031;28;20119;-63
2022/04/21 11:15:47;;;;;;;4.90;2.30;;;17.10;59.10;;;;;;5046257;28;20095;-63
2022/04/21 11:18:28;;;;;;;4.90;2.30;;;17.00;54.60;;;;;;5047661;28;20124;-63
2022/04/21 11:21:26;;;;;;;4.63;2.10;;;16.90;56.30;;;;;;5047424;28;20055;-64
2022/04/21 11:23:52;;;;;;;5.93;2.42;;;16.90;57.60;;;;;;5048209;28;20043;-64
2022/04/21 11:26:24;;;;;;;3.92;2.22;;;17.00;56.90;;;;;;5047580;28;20049;-64
2022/04/21 11:28:50;;;;;;;4.65;1.90;;;17.10;56.40;;;;;;5047087;28;20048;-64
2022/04/21 11:31:20;;;;;;;4.07;2.17;;;17.00;56.20;;;;;;5044878;28;20544;-66
2022/04/21 11:33:45;;;;;;;3.83;2.10;;;17.00;56.20;;;;;;5046573;28;20033;-63
2022/04/21 11:36:13;;;;;;;4.05;2.42;;;17.00;56.20;;;;;;5045191;28;20116;-64
2022/04/21 11:38:46;;;;;;;4.82;2.40;;;17.10;55.80;;;;;;5049247;28;20373;-63
2022/04/21 11:41:13;;;;;;;4.32;1.95;;;17.10;55.10;;;;;;5046704;28;20045;-64
2022/04/21 11:43:49;;;;;;;5.22;2.60;;;17.20;54.80;;;;;;5045315;28;20124;-64
2022/04/21 11:46:18;;;;;;;3.25;1.77;;;17.20;54.50;;;;;;5046487;28;20063;-65
2022/04/21 11:48:44;;;;;;;5.47;2.17;;;17.30;56.00;;;;;;5046567;28;20484;-64
2022/04/21 11:51:11;;;;;;;4.18;1.70;;;17.40;57.10;;;;;;5045544;28;20053;-65
2022/04/21 11:53:42;;;;;;;7.57;2.28;;;17.50;56.90;;;;;;5047479;28;20216;-64
2022/04/21 11:56:10;;;;;;;4.22;2.00;;;17.50;54.70;;;;;;5072144;28;20135;-65
2022/04/21 11:58:43;;;;;;;7.40;2.38;;;17.60;55.50;;;;;;5087577;28;20059;-64
2022/04/21 12:06:55;;;;;;;5.97;2.53;;;17.80;55.50;;;;;;5082636;28;20055;-64
2022/04/21 12:09:24;;;;;;;8.48;2.80;;;17.70;54.30;;;;;;5086403;28;20119;-64
2022/04/21 12:11:56;;;;;;;5.97;2.53;;;17.80;55.80;;;;;;5085704;28;20048;-64
2022/04/21 12:14:22;;;;;;;9.40;2.60;;;17.80;55.20;;;;;;5085505;28;20048;-62
2022/04/21 12:16:56;;;;;;;5.85;2.50;;;17.90;56.20;;;;;;5084753;28;20048;-63
2022/04/21 12:19:45;;;;;;;4.97;2.65;;;17.70;54.60;;;;;;5086165;28;20052;-62
2022/04/21 12:22:16;;;;;;;5.97;2.65;;;17.80;56.70;;;;;;5067111;28;20066;-62
2022/04/21 12:24:43;;;;;;;6.35;2.90;;;17.70;54.00;;;;;;5073543;28;20058;-63
2022/04/21 12:27:14;;;;;;;4.90;2.70;;;17.80;53.60;;;;;;5087298;28;20040;-63
2022/04/21 12:29:54;;;;;;;5.78;2.88;;;17.90;55.60;;;;;;5087493;28;20445;-63
2022/04/21 12:32:25;;;;;;;5.47;2.75;;;17.70;54.60;;;;;;5086099;28;20044;-63
2022/04/21 12:34:55;;;;;;;5.07;2.67;;;17.90;56.10;;;;;;5087845;28;20476;-63
2022/04/21 12:40:38;;;;;;;4.57;2.97;;;17.90;56.00;;;;;;5051939;28;20499;-63
2022/04/21 12:43:04;;;;;;;5.07;2.53;;;17.80;55.90;;;;;;5086983;28;20048;-63
2022/04/21 12:45:30;;;;;;;3.85;2.22;;;17.90;56.10;;;;;;5088130;28;20101;-63
2022/04/21 12:47:58;;;;;;;7.28;2.63;;;18.00;57.90;;;;;;5085051;28;20072;-63
2022/04/21 12:50:25;;;;;;;4.45;2.60;;;18.10;57.00;;;;;;5076340;28;20044;-63
2022/04/21 12:52:55;;;;;;;6.28;2.90;;;18.20;56.80;;;;;;5089665;28;20068;-64
2022/04/21 12:55:21;;;;;;;5.85;3.08;;;18.30;55.70;;;;;;5090938;28;20078;-63
2022/04/21 12:58:06;;;;;;;6.70;2.60;;;18.30;54.30;;;;;;5088933;28;20570;-63
2022/04/21 13:00:36;;;;;;;5.95;2.70;;;18.30;54.30;;;;;;5088817;28;20054;-64
2022/04/21 13:03:02;;;;;;;5.50;2.85;;;18.20;54.60;;;;;;5091094;28;20113;-65
2022/04/21 13:05:28;;;;;;;6.15;3.10;;;18.20;53.90;;;;;;5091367;28;20067;-64
2022/04/21 13:07:54;;;;;;;4.30;2.80;;;18.40;54.70;;;;;;5088218;28;20043;-64
2022/04/21 13:10:23;;;;;;;5.18;2.90;;;18.50;54.70;;;;;;5089296;28;20139;-64
2022/04/21 13:12:49;;;;;;;5.43;3.00;;;18.60;53.90;;;;;;5089547;28;20051;-64
2022/04/21 13:15:14;;;;;;;6.47;3.60;;;18.60;53.00;;;;;;5088089;28;20070;-64
2022/04/21 13:17:40;;;;;;;5.22;2.75;;;18.60;53.50;;;;;;5088125;28;20464;-64
2022/04/21 13:20:07;;;;;;;5.88;3.33;;;18.70;54.00;;;;;;5089267;28;20602;-64
2022/04/21 13:22:32;;;;;;;5.25;3.28;;;18.80;54.10;;;;;;5089009;28;20471;-64
2022/04/21 13:24:58;;;;;;;5.30;2.95;;;18.90;54.00;;;;;;5090540;28;20099;-64
2022/04/21 13:27:26;;;;;;;7.25;3.55;;;19.00;53.80;;;;;;5089235;28;20132;-65
2022/04/21 13:29:52;;;;;;;6.22;3.33;;;18.80;54.50;;;;;;5089582;28;20077;-64
2022/04/21 13:35:02;;;;;;;7.10;3.47;;;18.90;54.30;;;;;;5089750;28;20066;-66
2022/04/21 13:37:28;;;;;;;8.07;3.47;;;18.80;54.20;;;;;;5090462;28;20610;-65
2022/04/21 13:39:53;;;;;;;6.47;2.90;;;19.00;55.30;;;;;;5089623;28;20046;-64
2022/04/21 13:42:19;;;;;;;5.55;3.30;;;18.90;55.00;;;;;;5088034;28;20047;-64
2022/04/21 13:44:44;;;;;;;7.20;3.53;;;18.80;53.70;;;;;;5089519;28;20451;-65
2022/04/21 13:47:10;;;;;;;5.03;3.10;;;18.90;53.80;;;;;;5088643;28;20051;-65
2022/04/21 13:49:35;;;;;;;5.13;2.80;;;19.00;54.40;;;;;;5088857;28;20181;-64
2022/04/21 13:52:01;;;;;;;5.85;3.20;;;19.00;54.60;;;;;;5089265;28;20040;-65